sensor_id;sensor_type;location;lat;lon;timestamp;P1;durP1;ratioP1;P2;durP2;ratioP2
15356;SDS011;7778;48.792;9.260;2022-11-20T00:00:29;8.35;;;4.68;;
15356;SDS011;7778;48.792;9.260;2022-11-20T00:03:16;9.63;;;4.20;;
15356;SDS011;7778;48.792;9.260;2022-11-20T00:06:02;8.30;;;4.45;;
15356;SDS011;7778;48.792;9.260;2022-11-20T00:08:49;8.38;;;4.60;;
15356;SDS011;7778;48.792;9.260;2022-11-20T00:11:36;8.10;;;4.60;;
15356;SDS011;7778;48.792;9.260;2022-11-20T00:14:21;8.48;;;4.60;;
15356;SDS011;7778;48.792;9.260;2022-11-20T00:17:07;6.90;;;4.28;;
15356;SDS011;7778;48.792;9.260;2022-11-20T00:19:54;5.63;;;3.88;;
15356;SDS011;7778;48.792;9.260;2022-11-20T00:22:39;8.80;;;4.97;;
15356;SDS011;7778;48.792;9.260;2022-11-20T00:25:25;8.25;;;4.88;;
15356;SDS011;7778;48.792;9.260;2022-11-20T00:28:10;11.30;;;5.10;;
15356;SDS011;7778;48.792;9.260;2022-11-20T00:31:00;9.27;;;5.07;;
15356;SDS011;7778;48.792;9.260;2022-11-20T00:33:47;11.60;;;5.40;;
15356;SDS011;7778;48.792;9.260;2022-11-20T00:36:35;7.88;;;5.30;;
15356;SDS011;7778;48.792;9.260;2022-11-20T00:39:20;9.25;;;5.10;;
15356;SDS011;7778;48.792;9.260;2022-11-20T00:42:06;7.97;;;4.45;;
15356;SDS011;7778;48.792;9.260;2022-11-20T00:44:51;6.78;;;4.20;;
15356;SDS011;7778;48.792;9.260;2022-11-20T00:47:37;7.93;;;4.80;;
15356;SDS011;7778;48.792;9.260;2022-11-20T00:50:23;8.13;;;4.38;;
15356;SDS011;7778;48.792;9.260;2022-11-20T00:53:09;7.93;;;4.00;;
15356;SDS011;7778;48.792;9.260;2022-11-20T00:55:55;7.00;;;3.97;;
15356;SDS011;7778;48.792;9.260;2022-11-20T00:58:44;6.00;;;3.90;;
15356;SDS011;7778;48.792;9.260;2022-11-20T01:01:32;5.32;;;3.58;;
15356;SDS011;7778;48.792;9.260;2022-11-20T01:04:18;4.47;;;2.60;;
15356;SDS011;7778;48.792;9.260;2022-11-20T01:07:03;3.75;;;2.78;;
15356;SDS011;7778;48.792;9.260;2022-11-20T01:09:50;4.47;;;2.85;;
15356;SDS011;7778;48.792;9.260;2022-11-20T01:12:35;5.40;;;3.03;;
15356;SDS011;7778;48.792;9.260;2022-11-20T01:15:21;4.07;;;2.55;;
15356;SDS011;7778;48.792;9.260;2022-11-20T01:18:06;4.32;;;2.92;;
15356;SDS011;7778;48.792;9.260;2022-11-20T01:20:52;3.70;;;2.65;;
15356;SDS011;7778;48.792;9.260;2022-11-20T01:23:38;3.05;;;2.35;;
15356;SDS011;7778;48.792;9.260;2022-11-20T01:26:27;4.78;;;2.42;;
15356;SDS011;7778;48.792;9.260;2022-11-20T01:29:15;5.45;;;3.03;;
15356;SDS011;7778;48.792;9.260;2022-11-20T01:32:02;5.22;;;1.90;;
15356;SDS011;7778;48.792;9.260;2022-11-20T01:34:48;4.68;;;2.17;;
15356;SDS011;7778;48.792;9.260;2022-11-20T01:37:33;2.40;;;2.08;;
15356;SDS011;7778;48.792;9.260;2022-11-20T01:40:19;3.42;;;1.90;;
15356;SDS011;7778;48.792;9.260;2022-11-20T01:43:09;2.67;;;1.90;;
15356;SDS011;7778;48.792;9.260;2022-11-20T01:46:06;2.03;;;1.77;;
15356;SDS011;7778;48.792;9.260;2022-11-20T01:49:00;6.22;;;1.95;;
15356;SDS011;7778;48.792;9.260;2022-11-20T01:51:49;7.50;;;2.55;;
15356;SDS011;7778;48.792;9.260;2022-11-20T01:54:39;4.90;;;2.20;;
15356;SDS011;7778;48.792;9.260;2022-11-20T01:57:32;2.47;;;2.13;;
15356;SDS011;7778;48.792;9.260;2022-11-20T02:00:21;3.15;;;2.63;;
15356;SDS011;7778;48.792;9.260;2022-11-20T02:03:08;2.60;;;1.70;;
15356;SDS011;7778;48.792;9.260;2022-11-20T02:05:59;3.35;;;2.50;;
15356;SDS011;7778;48.792;9.260;2022-11-20T02:08:51;3.92;;;2.30;;
15356;SDS011;7778;48.792;9.260;2022-11-20T02:11:37;3.92;;;1.73;;
15356;SDS011;7778;48.792;9.260;2022-11-20T02:14:23;2.92;;;1.50;;
15356;SDS011;7778;48.792;9.260;2022-11-20T02:17:10;2.58;;;1.77;;
15356;SDS011;7778;48.792;9.260;2022-11-20T02:19:55;2.55;;;1.90;;
15356;SDS011;7778;48.792;9.260;2022-11-20T02:22:43;3.33;;;2.13;;
15356;SDS011;7778;48.792;9.260;2022-11-20T02:25:39;2.00;;;1.63;;
15356;SDS011;7778;48.792;9.260;2022-11-20T02:28:27;1.48;;;1.35;;
15356;SDS011;7778;48.792;9.260;2022-11-20T02:31:13;2.80;;;1.85;;
15356;SDS011;7778;48.792;9.260;2022-11-20T02:33:58;2.38;;;1.70;;
15356;SDS011;7778;48.792;9.260;2022-11-20T02:36:44;3.05;;;1.98;;
15356;SDS011;7778;48.792;9.260;2022-11-20T02:39:31;3.00;;;1.60;;
15356;SDS011;7778;48.792;9.260;2022-11-20T02:42:18;3.42;;;2.35;;
15356;SDS011;7778;48.792;9.260;2022-11-20T02:45:04;2.55;;;1.85;;
15356;SDS011;7778;48.792;9.260;2022-11-20T02:47:50;2.65;;;1.83;;
15356;SDS011;7778;48.792;9.260;2022-11-20T02:50:37;2.83;;;1.77;;
15356;SDS011;7778;48.792;9.260;2022-11-20T02:53:24;4.18;;;2.03;;
15356;SDS011;7778;48.792;9.260;2022-11-20T02:56:10;2.92;;;1.75;;
15356;SDS011;7778;48.792;9.260;2022-11-20T02:58:56;3.40;;;1.92;;
15356;SDS011;7778;48.792;9.260;2022-11-20T03:01:42;1.98;;;1.45;;
15356;SDS011;7778;48.792;9.260;2022-11-20T03:04:27;2.85;;;2.00;;
15356;SDS011;7778;48.792;9.260;2022-11-20T03:07:13;2.10;;;1.65;;
15356;SDS011;7778;48.792;9.260;2022-11-20T03:09:58;1.85;;;1.73;;
15356;SDS011;7778;48.792;9.260;2022-11-20T03:12:44;2.80;;;1.90;;
15356;SDS011;7778;48.792;9.260;2022-11-20T03:15:31;2.63;;;1.90;;
15356;SDS011;7778;48.792;9.260;2022-11-20T03:18:16;2.30;;;2.03;;
15356;SDS011;7778;48.792;9.260;2022-11-20T03:21:02;2.75;;;1.83;;
15356;SDS011;7778;48.792;9.260;2022-11-20T03:23:48;5.88;;;2.60;;
15356;SDS011;7778;48.792;9.260;2022-11-20T03:26:33;3.80;;;2.42;;
15356;SDS011;7778;48.792;9.260;2022-11-20T03:29:19;2.85;;;1.90;;
15356;SDS011;7778;48.792;9.260;2022-11-20T03:32:06;4.07;;;2.25;;
15356;SDS011;7778;48.792;9.260;2022-11-20T03:34:51;3.28;;;2.10;;
15356;SDS011;7778;48.792;9.260;2022-11-20T03:37:37;2.53;;;2.05;;
15356;SDS011;7778;48.792;9.260;2022-11-20T03:40:22;4.30;;;2.53;;
15356;SDS011;7778;48.792;9.260;2022-11-20T03:43:09;3.50;;;2.40;;
15356;SDS011;7778;48.792;9.260;2022-11-20T03:45:55;4.03;;;2.25;;
15356;SDS011;7778;48.792;9.260;2022-11-20T03:48:41;3.75;;;2.58;;
15356;SDS011;7778;48.792;9.260;2022-11-20T03:51:27;4.32;;;2.63;;
15356;SDS011;7778;48.792;9.260;2022-11-20T03:54:15;5.00;;;2.58;;
15356;SDS011;7778;48.792;9.260;2022-11-20T03:57:00;2.78;;;2.20;;
15356;SDS011;7778;48.792;9.260;2022-11-20T03:59:46;2.17;;;1.70;;
15356;SDS011;7778;48.792;9.260;2022-11-20T04:02:31;3.42;;;2.30;;
15356;SDS011;7778;48.792;9.260;2022-11-20T04:05:18;3.03;;;2.15;;
15356;SDS011;7778;48.792;9.260;2022-11-20T04:08:04;4.80;;;2.38;;
15356;SDS011;7778;48.792;9.260;2022-11-20T04:10:50;3.33;;;2.00;;
15356;SDS011;7778;48.792;9.260;2022-11-20T04:13:35;4.00;;;2.35;;
15356;SDS011;7778;48.792;9.260;2022-11-20T04:16:22;3.08;;;2.30;;
15356;SDS011;7778;48.792;9.260;2022-11-20T04:19:10;5.03;;;2.30;;
15356;SDS011;7778;48.792;9.260;2022-11-20T04:21:58;3.97;;;2.47;;
15356;SDS011;7778;48.792;9.260;2022-11-20T04:24:44;2.88;;;1.95;;
15356;SDS011;7778;48.792;9.260;2022-11-20T04:27:30;4.13;;;2.30;;
15356;SDS011;7778;48.792;9.260;2022-11-20T04:30:16;3.80;;;2.20;;
15356;SDS011;7778;48.792;9.260;2022-11-20T04:33:01;2.47;;;2.13;;
15356;SDS011;7778;48.792;9.260;2022-11-20T04:35:47;4.40;;;2.00;;
15356;SDS011;7778;48.792;9.260;2022-11-20T04:38:34;2.67;;;2.20;;
15356;SDS011;7778;48.792;9.260;2022-11-20T04:41:20;4.93;;;2.30;;
15356;SDS011;7778;48.792;9.260;2022-11-20T04:44:07;2.58;;;1.90;;
15356;SDS011;7778;48.792;9.260;2022-11-20T04:46:53;2.90;;;2.25;;
15356;SDS011;7778;48.792;9.260;2022-11-20T04:49:39;2.60;;;1.80;;
15356;SDS011;7778;48.792;9.260;2022-11-20T04:52:24;4.45;;;2.55;;
15356;SDS011;7778;48.792;9.260;2022-11-20T04:55:11;4.20;;;1.85;;
15356;SDS011;7778;48.792;9.260;2022-11-20T04:57:57;3.25;;;1.90;;
15356;SDS011;7778;48.792;9.260;2022-11-20T05:00:42;5.28;;;2.10;;
15356;SDS011;7778;48.792;9.260;2022-11-20T05:03:28;4.00;;;2.35;;
15356;SDS011;7778;48.792;9.260;2022-11-20T05:06:15;3.30;;;2.15;;
15356;SDS011;7778;48.792;9.260;2022-11-20T05:09:02;4.35;;;2.30;;
15356;SDS011;7778;48.792;9.260;2022-11-20T05:11:49;3.92;;;2.38;;
15356;SDS011;7778;48.792;9.260;2022-11-20T05:14:35;3.05;;;2.03;;
15356;SDS011;7778;48.792;9.260;2022-11-20T05:17:21;2.65;;;2.10;;
15356;SDS011;7778;48.792;9.260;2022-11-20T05:20:07;2.47;;;1.92;;
15356;SDS011;7778;48.792;9.260;2022-11-20T05:22:56;2.90;;;1.92;;
15356;SDS011;7778;48.792;9.260;2022-11-20T05:25:41;2.45;;;1.52;;
15356;SDS011;7778;48.792;9.260;2022-11-20T05:28:28;2.45;;;1.77;;
15356;SDS011;7778;48.792;9.260;2022-11-20T05:31:15;3.33;;;1.90;;
15356;SDS011;7778;48.792;9.260;2022-11-20T05:34:03;2.75;;;1.77;;
15356;SDS011;7778;48.792;9.260;2022-11-20T05:36:48;4.30;;;1.95;;
15356;SDS011;7778;48.792;9.260;2022-11-20T05:39:34;2.67;;;2.10;;
15356;SDS011;7778;48.792;9.260;2022-11-20T05:42:19;5.10;;;2.47;;
15356;SDS011;7778;48.792;9.260;2022-11-20T05:45:18;4.28;;;2.50;;
15356;SDS011;7778;48.792;9.260;2022-11-20T05:48:04;2.42;;;1.60;;
15356;SDS011;7778;48.792;9.260;2022-11-20T05:50:50;1.95;;;1.75;;
15356;SDS011;7778;48.792;9.260;2022-11-20T05:53:35;5.40;;;2.00;;
15356;SDS011;7778;48.792;9.260;2022-11-20T05:56:21;3.13;;;1.98;;
15356;SDS011;7778;48.792;9.260;2022-11-20T05:59:07;3.40;;;2.22;;
15356;SDS011;7778;48.792;9.260;2022-11-20T06:01:54;6.47;;;2.35;;
15356;SDS011;7778;48.792;9.260;2022-11-20T06:04:40;2.92;;;1.92;;
15356;SDS011;7778;48.792;9.260;2022-11-20T06:07:25;7.93;;;1.98;;
15356;SDS011;7778;48.792;9.260;2022-11-20T06:10:10;3.15;;;1.92;;
15356;SDS011;7778;48.792;9.260;2022-11-20T06:12:57;3.83;;;1.95;;
15356;SDS011;7778;48.792;9.260;2022-11-20T06:15:47;4.05;;;1.95;;
15356;SDS011;7778;48.792;9.260;2022-11-20T06:18:35;4.18;;;1.88;;
15356;SDS011;7778;48.792;9.260;2022-11-20T06:21:21;2.47;;;1.63;;
15356;SDS011;7778;48.792;9.260;2022-11-20T06:24:08;2.85;;;1.80;;
15356;SDS011;7778;48.792;9.260;2022-11-20T06:26:54;4.50;;;2.30;;
15356;SDS011;7778;48.792;9.260;2022-11-20T06:29:40;3.78;;;2.08;;
15356;SDS011;7778;48.792;9.260;2022-11-20T06:32:25;2.83;;;2.00;;
15356;SDS011;7778;48.792;9.260;2022-11-20T06:35:12;3.13;;;1.42;;
15356;SDS011;7778;48.792;9.260;2022-11-20T06:37:58;3.25;;;1.67;;
15356;SDS011;7778;48.792;9.260;2022-11-20T06:40:43;2.13;;;1.67;;
15356;SDS011;7778;48.792;9.260;2022-11-20T06:43:29;2.63;;;1.90;;
15356;SDS011;7778;48.792;9.260;2022-11-20T06:46:15;3.03;;;2.05;;
15356;SDS011;7778;48.792;9.260;2022-11-20T06:49:02;1.58;;;1.48;;
15356;SDS011;7778;48.792;9.260;2022-11-20T06:51:49;1.42;;;1.33;;
15356;SDS011;7778;48.792;9.260;2022-11-20T06:54:35;4.07;;;1.63;;
15356;SDS011;7778;48.792;9.260;2022-11-20T06:57:20;3.33;;;1.55;;
15356;SDS011;7778;48.792;9.260;2022-11-20T07:00:06;1.98;;;1.45;;
15356;SDS011;7778;48.792;9.260;2022-11-20T07:02:53;1.52;;;1.42;;
15356;SDS011;7778;48.792;9.260;2022-11-20T07:05:38;2.20;;;1.60;;
15356;SDS011;7778;48.792;9.260;2022-11-20T07:08:26;4.45;;;2.30;;
15356;SDS011;7778;48.792;9.260;2022-11-20T07:11:12;2.85;;;1.67;;
15356;SDS011;7778;48.792;9.260;2022-11-20T07:13:58;5.38;;;2.22;;
15356;SDS011;7778;48.792;9.260;2022-11-20T07:16:43;2.78;;;1.77;;
15356;SDS011;7778;48.792;9.260;2022-11-20T07:19:28;3.15;;;1.83;;
15356;SDS011;7778;48.792;9.260;2022-11-20T07:22:14;2.65;;;1.67;;
15356;SDS011;7778;48.792;9.260;2022-11-20T07:25:01;2.50;;;1.90;;
15356;SDS011;7778;48.792;9.260;2022-11-20T07:27:47;1.98;;;1.33;;
15356;SDS011;7778;48.792;9.260;2022-11-20T07:30:32;2.28;;;1.65;;
15356;SDS011;7778;48.792;9.260;2022-11-20T07:33:18;4.15;;;1.90;;
15356;SDS011;7778;48.792;9.260;2022-11-20T07:36:04;5.03;;;1.27;;
15356;SDS011;7778;48.792;9.260;2022-11-20T07:38:50;3.17;;;2.05;;
15356;SDS011;7778;48.792;9.260;2022-11-20T07:41:37;2.42;;;1.67;;
15356;SDS011;7778;48.792;9.260;2022-11-20T07:44:23;2.80;;;1.90;;
15356;SDS011;7778;48.792;9.260;2022-11-20T07:47:08;1.65;;;1.50;;
15356;SDS011;7778;48.792;9.260;2022-11-20T07:49:53;4.85;;;1.80;;
15356;SDS011;7778;48.792;9.260;2022-11-20T07:52:39;5.80;;;3.05;;
15356;SDS011;7778;48.792;9.260;2022-11-20T07:55:25;4.13;;;1.92;;
15356;SDS011;7778;48.792;9.260;2022-11-20T07:58:12;10.65;;;3.92;;
15356;SDS011;7778;48.792;9.260;2022-11-20T08:01:01;4.25;;;2.25;;
15356;SDS011;7778;48.792;9.260;2022-11-20T08:03:48;2.70;;;2.03;;
15356;SDS011;7778;48.792;9.260;2022-11-20T08:06:34;1.85;;;1.50;;
15356;SDS011;7778;48.792;9.260;2022-11-20T08:09:19;4.32;;;2.13;;
15356;SDS011;7778;48.792;9.260;2022-11-20T08:12:05;2.30;;;1.75;;
15356;SDS011;7778;48.792;9.260;2022-11-20T08:15:10;1.60;;;1.42;;
15356;SDS011;7778;48.792;9.260;2022-11-20T08:18:00;1.92;;;1.73;;
15356;SDS011;7778;48.792;9.260;2022-11-20T08:20:47;2.03;;;1.65;;
15356;SDS011;7778;48.792;9.260;2022-11-20T08:23:32;1.98;;;1.50;;
15356;SDS011;7778;48.792;9.260;2022-11-20T08:26:18;1.60;;;1.42;;
15356;SDS011;7778;48.792;9.260;2022-11-20T08:29:04;2.17;;;1.58;;
15356;SDS011;7778;48.792;9.260;2022-11-20T08:31:51;1.67;;;1.42;;
15356;SDS011;7778;48.792;9.260;2022-11-20T08:34:37;2.90;;;1.58;;
15356;SDS011;7778;48.792;9.260;2022-11-20T08:37:23;2.45;;;1.25;;
15356;SDS011;7778;48.792;9.260;2022-11-20T08:40:09;1.42;;;1.33;;
15356;SDS011;7778;48.792;9.260;2022-11-20T08:42:56;2.90;;;1.30;;
15356;SDS011;7778;48.792;9.260;2022-11-20T08:45:42;2.08;;;1.50;;
15356;SDS011;7778;48.792;9.260;2022-11-20T08:48:28;1.85;;;1.45;;
15356;SDS011;7778;48.792;9.260;2022-11-20T08:51:14;2.08;;;1.70;;
15356;SDS011;7778;48.792;9.260;2022-11-20T08:54:00;2.22;;;1.65;;
15356;SDS011;7778;48.792;9.260;2022-11-20T08:56:47;2.13;;;1.38;;
15356;SDS011;7778;48.792;9.260;2022-11-20T08:59:33;3.78;;;1.63;;
15356;SDS011;7778;48.792;9.260;2022-11-20T09:02:18;4.35;;;2.20;;
15356;SDS011;7778;48.792;9.260;2022-11-20T09:05:05;1.88;;;1.10;;
15356;SDS011;7778;48.792;9.260;2022-11-20T09:07:51;2.03;;;1.23;;
15356;SDS011;7778;48.792;9.260;2022-11-20T09:10:37;3.95;;;1.17;;
15356;SDS011;7778;48.792;9.260;2022-11-20T09:13:23;1.02;;;0.95;;
15356;SDS011;7778;48.792;9.260;2022-11-20T09:16:10;1.10;;;1.00;;
15356;SDS011;7778;48.792;9.260;2022-11-20T09:18:56;2.78;;;1.55;;
15356;SDS011;7778;48.792;9.260;2022-11-20T09:21:43;2.03;;;1.40;;
15356;SDS011;7778;48.792;9.260;2022-11-20T09:24:28;1.13;;;1.02;;
15356;SDS011;7778;48.792;9.260;2022-11-20T09:27:14;1.55;;;1.45;;
15356;SDS011;7778;48.792;9.260;2022-11-20T09:30:04;1.35;;;1.25;;
15356;SDS011;7778;48.792;9.260;2022-11-20T09:32:51;1.13;;;0.80;;
15356;SDS011;7778;48.792;9.260;2022-11-20T09:35:37;1.77;;;1.10;;
15356;SDS011;7778;48.792;9.260;2022-11-20T09:38:24;2.63;;;1.33;;
15356;SDS011;7778;48.792;9.260;2022-11-20T09:41:10;2.58;;;1.30;;
15356;SDS011;7778;48.792;9.260;2022-11-20T09:44:20;2.75;;;1.48;;
15356;SDS011;7778;48.792;9.260;2022-11-20T09:47:26;0.80;;;0.80;;
15356;SDS011;7778;48.792;9.260;2022-11-20T09:50:25;1.88;;;1.27;;
15356;SDS011;7778;48.792;9.260;2022-11-20T09:53:19;1.10;;;1.00;;
15356;SDS011;7778;48.792;9.260;2022-11-20T09:56:18;1.35;;;0.93;;
15356;SDS011;7778;48.792;9.260;2022-11-20T09:59:05;2.00;;;1.50;;
15356;SDS011;7778;48.792;9.260;2022-11-20T10:01:56;4.28;;;2.75;;
15356;SDS011;7778;48.792;9.260;2022-11-20T10:04:44;4.05;;;1.20;;
15356;SDS011;7778;48.792;9.260;2022-11-20T10:07:36;1.00;;;0.90;;
15356;SDS011;7778;48.792;9.260;2022-11-20T10:10:30;1.15;;;0.80;;
15356;SDS011;7778;48.792;9.260;2022-11-20T10:13:27;1.10;;;0.80;;
15356;SDS011;7778;48.792;9.260;2022-11-20T10:16:26;0.60;;;0.60;;
15356;SDS011;7778;48.792;9.260;2022-11-20T10:19:30;0.85;;;0.73;;
15356;SDS011;7778;48.792;9.260;2022-11-20T10:22:37;1.35;;;0.93;;
15356;SDS011;7778;48.792;9.260;2022-11-20T10:25:36;1.20;;;1.10;;
15356;SDS011;7778;48.792;9.260;2022-11-20T10:28:27;3.08;;;1.85;;
15356;SDS011;7778;48.792;9.260;2022-11-20T10:31:30;2.75;;;1.77;;
15356;SDS011;7778;48.792;9.260;2022-11-20T10:34:20;1.55;;;1.30;;
15356;SDS011;7778;48.792;9.260;2022-11-20T10:37:12;2.47;;;1.52;;
15356;SDS011;7778;48.792;9.260;2022-11-20T10:40:03;1.20;;;0.77;;
15356;SDS011;7778;48.792;9.260;2022-11-20T10:43:08;1.33;;;1.23;;
15356;SDS011;7778;48.792;9.260;2022-11-20T10:45:58;4.07;;;2.60;;
15356;SDS011;7778;48.792;9.260;2022-11-20T10:48:49;1.30;;;0.88;;
15356;SDS011;7778;48.792;9.260;2022-11-20T10:51:35;1.48;;;1.27;;
15356;SDS011;7778;48.792;9.260;2022-11-20T10:54:31;0.98;;;0.98;;
15356;SDS011;7778;48.792;9.260;2022-11-20T10:57:25;2.03;;;0.98;;
15356;SDS011;7778;48.792;9.260;2022-11-20T11:00:32;1.95;;;0.77;;
15356;SDS011;7778;48.792;9.260;2022-11-20T11:03:20;0.95;;;0.70;;
15356;SDS011;7778;48.792;9.260;2022-11-20T11:06:12;2.72;;;1.83;;
15356;SDS011;7778;48.792;9.260;2022-11-20T11:09:09;1.85;;;1.05;;
15356;SDS011;7778;48.792;9.260;2022-11-20T11:12:01;1.00;;;1.00;;
15356;SDS011;7778;48.792;9.260;2022-11-20T11:14:52;1.13;;;1.10;;
15356;SDS011;7778;48.792;9.260;2022-11-20T11:17:45;1.55;;;1.42;;
15356;SDS011;7778;48.792;9.260;2022-11-20T11:20:32;1.85;;;1.35;;
15356;SDS011;7778;48.792;9.260;2022-11-20T11:23:23;1.10;;;0.70;;
15356;SDS011;7778;48.792;9.260;2022-11-20T11:26:18;2.20;;;1.10;;
15356;SDS011;7778;48.792;9.260;2022-11-20T11:29:15;1.48;;;1.17;;
15356;SDS011;7778;48.792;9.260;2022-11-20T11:32:03;1.08;;;0.98;;
15356;SDS011;7778;48.792;9.260;2022-11-20T11:35:01;1.58;;;1.08;;
15356;SDS011;7778;48.792;9.260;2022-11-20T11:37:50;1.20;;;1.05;;
15356;SDS011;7778;48.792;9.260;2022-11-20T11:40:37;2.78;;;1.65;;
15356;SDS011;7778;48.792;9.260;2022-11-20T11:43:25;2.35;;;1.60;;
15356;SDS011;7778;48.792;9.260;2022-11-20T11:46:32;1.73;;;1.40;;
15356;SDS011;7778;48.792;9.260;2022-11-20T11:49:20;5.20;;;3.10;;
15356;SDS011;7778;48.792;9.260;2022-11-20T11:52:10;4.40;;;2.88;;
15356;SDS011;7778;48.792;9.260;2022-11-20T11:55:01;4.38;;;2.28;;
15356;SDS011;7778;48.792;9.260;2022-11-20T11:57:51;5.05;;;2.70;;
15356;SDS011;7778;48.792;9.260;2022-11-20T12:00:45;1.95;;;1.42;;
15356;SDS011;7778;48.792;9.260;2022-11-20T12:03:50;3.20;;;1.70;;
15356;SDS011;7778;48.792;9.260;2022-11-20T12:06:46;4.95;;;1.75;;
15356;SDS011;7778;48.792;9.260;2022-11-20T12:09:39;4.38;;;2.17;;
15356;SDS011;7778;48.792;9.260;2022-11-20T12:12:31;6.38;;;3.17;;
15356;SDS011;7778;48.792;9.260;2022-11-20T12:15:29;6.57;;;2.88;;
15356;SDS011;7778;48.792;9.260;2022-11-20T12:18:18;8.55;;;2.55;;
15356;SDS011;7778;48.792;9.260;2022-11-20T12:21:08;3.25;;;1.75;;
15356;SDS011;7778;48.792;9.260;2022-11-20T12:24:06;4.80;;;1.98;;
15356;SDS011;7778;48.792;9.260;2022-11-20T12:27:30;4.80;;;1.35;;
15356;SDS011;7778;48.792;9.260;2022-11-20T12:30:48;6.45;;;1.73;;
15356;SDS011;7778;48.792;9.260;2022-11-20T12:34:01;11.30;;;7.22;;
15356;SDS011;7778;48.792;9.260;2022-11-20T12:37:01;3.10;;;1.60;;
15356;SDS011;7778;48.792;9.260;2022-11-20T12:39:56;2.15;;;1.17;;
15356;SDS011;7778;48.792;9.260;2022-11-20T12:42:54;3.85;;;2.47;;
15356;SDS011;7778;48.792;9.260;2022-11-20T12:46:13;2.97;;;1.67;;
15356;SDS011;7778;48.792;9.260;2022-11-20T12:49:20;13.15;;;7.50;;
15356;SDS011;7778;48.792;9.260;2022-11-20T12:52:19;1.25;;;0.98;;
15356;SDS011;7778;48.792;9.260;2022-11-20T12:55:28;3.35;;;0.88;;
15356;SDS011;7778;48.792;9.260;2022-11-20T12:58:29;12.63;;;5.25;;
15356;SDS011;7778;48.792;9.260;2022-11-20T13:01:24;9.68;;;4.93;;
15356;SDS011;7778;48.792;9.260;2022-11-20T13:07:44;3.88;;;2.15;;
15356;SDS011;7778;48.792;9.260;2022-11-20T13:10:33;3.85;;;1.13;;
15356;SDS011;7778;48.792;9.260;2022-11-20T13:13:28;5.88;;;2.38;;
15356;SDS011;7778;48.792;9.260;2022-11-20T13:16:25;2.50;;;1.52;;
15356;SDS011;7778;48.792;9.260;2022-11-20T13:19:18;2.15;;;1.00;;
15356;SDS011;7778;48.792;9.260;2022-11-20T13:22:07;2.22;;;1.33;;
15356;SDS011;7778;48.792;9.260;2022-11-20T13:24:53;1.83;;;1.05;;
15356;SDS011;7778;48.792;9.260;2022-11-20T13:27:46;4.22;;;2.58;;
15356;SDS011;7778;48.792;9.260;2022-11-20T13:30:34;2.00;;;0.93;;
15356;SDS011;7778;48.792;9.260;2022-11-20T13:33:22;6.50;;;2.83;;
15356;SDS011;7778;48.792;9.260;2022-11-20T13:36:20;4.82;;;2.28;;
15356;SDS011;7778;48.792;9.260;2022-11-20T13:39:08;2.58;;;1.55;;
15356;SDS011;7778;48.792;9.260;2022-11-20T13:41:54;1.20;;;1.00;;
15356;SDS011;7778;48.792;9.260;2022-11-20T13:44:42;5.65;;;3.03;;
15356;SDS011;7778;48.792;9.260;2022-11-20T13:47:35;2.38;;;1.20;;
15356;SDS011;7778;48.792;9.260;2022-11-20T13:50:23;3.03;;;1.58;;
15356;SDS011;7778;48.792;9.260;2022-11-20T13:53:29;4.03;;;1.95;;
15356;SDS011;7778;48.792;9.260;2022-11-20T13:56:34;1.88;;;1.63;;
15356;SDS011;7778;48.792;9.260;2022-11-20T13:59:40;2.25;;;1.63;;
15356;SDS011;7778;48.792;9.260;2022-11-20T14:02:37;5.30;;;2.28;;
15356;SDS011;7778;48.792;9.260;2022-11-20T14:05:24;3.33;;;2.00;;
15356;SDS011;7778;48.792;9.260;2022-11-20T14:08:12;3.65;;;1.92;;
15356;SDS011;7778;48.792;9.260;2022-11-20T14:11:13;1.80;;;1.08;;
15356;SDS011;7778;48.792;9.260;2022-11-20T14:14:02;1.38;;;0.85;;
15356;SDS011;7778;48.792;9.260;2022-11-20T14:16:50;1.35;;;1.20;;
15356;SDS011;7778;48.792;9.260;2022-11-20T14:19:38;5.03;;;0.90;;
15356;SDS011;7778;48.792;9.260;2022-11-20T14:22:26;5.07;;;2.05;;
15356;SDS011;7778;48.792;9.260;2022-11-20T14:25:18;2.05;;;1.02;;
15356;SDS011;7778;48.792;9.260;2022-11-20T14:28:10;1.55;;;1.30;;
15356;SDS011;7778;48.792;9.260;2022-11-20T14:31:08;1.58;;;1.30;;
15356;SDS011;7778;48.792;9.260;2022-11-20T14:34:10;2.30;;;1.40;;
15356;SDS011;7778;48.792;9.260;2022-11-20T14:37:04;2.65;;;1.55;;
15356;SDS011;7778;48.792;9.260;2022-11-20T14:39:55;1.45;;;1.05;;
15356;SDS011;7778;48.792;9.260;2022-11-20T14:42:43;0.70;;;0.70;;
15356;SDS011;7778;48.792;9.260;2022-11-20T14:45:29;2.00;;;1.00;;
15356;SDS011;7778;48.792;9.260;2022-11-20T14:48:14;6.28;;;1.65;;
15356;SDS011;7778;48.792;9.260;2022-11-20T14:51:01;3.33;;;1.90;;
15356;SDS011;7778;48.792;9.260;2022-11-20T14:53:48;7.07;;;2.25;;
15356;SDS011;7778;48.792;9.260;2022-11-20T14:56:34;5.88;;;2.22;;
15356;SDS011;7778;48.792;9.260;2022-11-20T14:59:22;2.33;;;1.45;;
15356;SDS011;7778;48.792;9.260;2022-11-20T15:02:11;2.80;;;1.52;;
15356;SDS011;7778;48.792;9.260;2022-11-20T15:04:58;4.45;;;1.27;;
15356;SDS011;7778;48.792;9.260;2022-11-20T15:07:50;4.22;;;1.98;;
15356;SDS011;7778;48.792;9.260;2022-11-20T15:10:51;1.02;;;0.82;;
15356;SDS011;7778;48.792;9.260;2022-11-20T15:13:39;5.47;;;1.77;;
15356;SDS011;7778;48.792;9.260;2022-11-20T15:16:24;5.43;;;1.80;;
15356;SDS011;7778;48.792;9.260;2022-11-20T15:19:13;1.75;;;0.88;;
15356;SDS011;7778;48.792;9.260;2022-11-20T15:22:04;7.38;;;2.75;;
15356;SDS011;7778;48.792;9.260;2022-11-20T15:25:04;4.43;;;1.67;;
15356;SDS011;7778;48.792;9.260;2022-11-20T15:27:58;3.67;;;1.42;;
15356;SDS011;7778;48.792;9.260;2022-11-20T15:30:44;1.20;;;0.98;;
15356;SDS011;7778;48.792;9.260;2022-11-20T15:33:31;1.25;;;1.05;;
15356;SDS011;7778;48.792;9.260;2022-11-20T15:36:18;4.47;;;1.15;;
15356;SDS011;7778;48.792;9.260;2022-11-20T15:39:03;1.70;;;0.93;;
15356;SDS011;7778;48.792;9.260;2022-11-20T15:41:50;3.72;;;1.30;;
15356;SDS011;7778;48.792;9.260;2022-11-20T15:44:37;1.50;;;1.20;;
15356;SDS011;7778;48.792;9.260;2022-11-20T15:47:24;1.08;;;0.85;;
15356;SDS011;7778;48.792;9.260;2022-11-20T15:50:13;2.55;;;1.10;;
15356;SDS011;7778;48.792;9.260;2022-11-20T15:53:02;4.88;;;1.83;;
15356;SDS011;7778;48.792;9.260;2022-11-20T15:55:48;3.08;;;1.50;;
15356;SDS011;7778;48.792;9.260;2022-11-20T15:58:34;3.35;;;1.52;;
15356;SDS011;7778;48.792;9.260;2022-11-20T16:01:21;1.77;;;1.33;;
15356;SDS011;7778;48.792;9.260;2022-11-20T16:04:09;2.30;;;1.25;;
15356;SDS011;7778;48.792;9.260;2022-11-20T16:06:56;1.33;;;1.10;;
15356;SDS011;7778;48.792;9.260;2022-11-20T16:09:41;2.60;;;1.27;;
15356;SDS011;7778;48.792;9.260;2022-11-20T16:12:27;3.03;;;1.60;;
15356;SDS011;7778;48.792;9.260;2022-11-20T16:15:30;4.65;;;1.65;;
15356;SDS011;7778;48.792;9.260;2022-11-20T16:18:32;1.08;;;1.00;;
15356;SDS011;7778;48.792;9.260;2022-11-20T16:21:18;2.70;;;1.52;;
15356;SDS011;7778;48.792;9.260;2022-11-20T16:24:05;1.85;;;1.20;;
15356;SDS011;7778;48.792;9.260;2022-11-20T16:26:52;4.13;;;1.50;;
15356;SDS011;7778;48.792;9.260;2022-11-20T16:29:38;4.50;;;1.70;;
15356;SDS011;7778;48.792;9.260;2022-11-20T16:32:23;2.15;;;1.35;;
15356;SDS011;7778;48.792;9.260;2022-11-20T16:35:10;2.90;;;1.27;;
15356;SDS011;7778;48.792;9.260;2022-11-20T16:37:56;2.38;;;1.35;;
15356;SDS011;7778;48.792;9.260;2022-11-20T16:40:42;3.05;;;1.52;;
15356;SDS011;7778;48.792;9.260;2022-11-20T16:43:28;1.33;;;1.08;;
15356;SDS011;7778;48.792;9.260;2022-11-20T16:46:13;0.98;;;0.50;;
15356;SDS011;7778;48.792;9.260;2022-11-20T16:49:02;1.88;;;1.20;;
15356;SDS011;7778;48.792;9.260;2022-11-20T16:51:50;1.25;;;0.80;;
15356;SDS011;7778;48.792;9.260;2022-11-20T16:54:36;2.17;;;1.30;;
15356;SDS011;7778;48.792;9.260;2022-11-20T16:57:22;1.63;;;0.98;;
15356;SDS011;7778;48.792;9.260;2022-11-20T17:00:08;1.75;;;1.15;;
15356;SDS011;7778;48.792;9.260;2022-11-20T17:02:54;5.97;;;1.50;;
15356;SDS011;7778;48.792;9.260;2022-11-20T17:05:40;1.67;;;1.17;;
15356;SDS011;7778;48.792;9.260;2022-11-20T17:08:28;1.88;;;1.60;;
15356;SDS011;7778;48.792;9.260;2022-11-20T17:11:14;2.20;;;1.23;;
15356;SDS011;7778;48.792;9.260;2022-11-20T17:14:01;1.42;;;1.17;;
15356;SDS011;7778;48.792;9.260;2022-11-20T17:16:47;4.15;;;1.40;;